Crawford, NE (69339)

5:20 AM MDT on May 24, 2015 (GMT -0600)
Deadman | | Change Station
CLOSE
Current Station
Personal Weather Station
Location: Crawford, NE
Elevation: 4180 ft
Nearby Weather Stations

Elev 4180 ft 42.58 °N, 103.47 °W | Updated 34 seconds ago

Rain
Rain
49.5 °F
Feels Like 47 °F
N
6.3
Wind Variable Wind from SE
Gusts 6.3 mph

Today
High -- | Low -- °F
--% Chance of Precip.
Yesterday
High -- | Low -- °F
Precip. -- in
5:23 AM 8:17 PM
Waxing Crescent, 38% visible
Pressure 29.89 in
Visibility 6.0 miles
Clouds Overcast 7000 ft
Windchill 47 °F
Dew Point 49 °F
Humidity 97%
Rainfall 0.46 in
Snow Depth Not available.
UV 0 out of 12
Pollen 1.80 out of 12
Air Quality Not available.
Flu Activity No Activity
METAR KCDR 241053Z AUTO 07003KT 6SM RA BR OVC070 12/11 A2990 RMK AO2 RAB06 SLP121 P0004 T01170106

More Conditions Fewer Conditions

Pressure 29.89 in
Visibility 6.0 miles
Clouds Overcast 7000 ft
Windchill 47 °F
Dew Point 49 °F
Humidity 97%
Rainfall 0.46 in
Snow Depth Not available.
UV 0 out of 12
Pollen 1.80 out of 12
Air Quality Not available.
Flu Activity No Activity
METAR KCDR 241053Z AUTO 07003KT 6SM RA BR OVC070 12/11 A2990 RMK AO2 RAB06 SLP121 P0004 T01170106

More Conditions Fewer Conditions

10-Day Weather Forecast

Almanac

Astronomy

May. 24, 2015 Rise Set
Actual Time
Civil Twilight
Nautical Twilight
Astronomical Twilight
Moon
Length of Visible Light
Length of Day
Tomorrow will be .
, % of the Moon is Illuminated

Today's Extremes

State Highs State Lows

Community

WunderPhotos

Upload Photos

1,823,715 photos uploaded!

WunderBlogs® & News

Nearby

Air Quality

  Air Quality AQ Index Pollutant
Not available.

Snow Depth

Station Depth Elevation

Earthquake Activity

City Distance Mag. Time & Date
Minimum magnitude displayed is 2.5.

Coastal Water Temperatures

Place Temperature

Stations

Nearby Weather Stations

Station Location Temp. Windchill Dew Point Humidity Wind Precip. Elev Updated Type